Time;durP1;ratioP1;P1;durP2;ratioP2;P2;SDS_P1;SDS_P2;PMS_P1;PMS_P2;Temp;Humidity;BMP_temperature;BMP_pressure;BME280_temperature;BME280_humidity;BME280_pressure;Samples;Min_cycle;Max_cycle;Signal;HPM_P1;HPM_P2
2021/08/22 00:03:58;;;;;;;;;;;16.70;99.90;;;;;;8462495;28;20221;-66
2021/08/22 00:07:59;;;;;;;;;;;16.90;99.90;;;;;;8462829;28;19943;-66
2021/08/22 00:11:59;;;;;;;;;;;16.80;99.90;;;;;;8444839;28;19912;-66
2021/08/22 00:16:00;;;;;;;;;;;16.80;99.90;;;;;;8445018;28;19908;-66
2021/08/22 00:20:01;;;;;;;;;;;16.50;99.90;;;;;;8444161;28;19912;-66
2021/08/22 00:24:02;;;;;;;;;;;16.50;99.90;;;;;;8462756;28;20615;-66
2021/08/22 00:28:02;;;;;;;;;;;16.60;99.90;;;;;;8462084;28;19923;-66
2021/08/22 00:32:03;;;;;;;;;;;16.70;99.90;;;;;;8461649;28;19911;-65
2021/08/22 00:36:03;;;;;;;;;;;16.70;99.90;;;;;;8460611;28;19960;-66
2021/08/22 00:40:04;;;;;;;;;;;16.90;99.90;;;;;;8462001;28;19958;-66
2021/08/22 00:44:05;;;;;;;;;;;16.90;99.90;;;;;;8462233;28;19907;-66
2021/08/22 00:48:06;;;;;;;;;;;17.00;99.90;;;;;;8462116;28;19915;-66
2021/08/22 00:52:07;;;;;;;;;;;16.90;99.90;;;;;;8461941;28;19912;-66
2021/08/22 00:56:09;;;;;;;;;;;17.00;99.90;;;;;;8462128;28;19926;-66
2021/08/22 01:00:10;;;;;;;;;;;17.10;99.90;;;;;;8461948;28;20535;-66
2021/08/22 01:04:17;;;;;;;;;;;17.20;99.90;;;;;;8461742;28;19908;-66
2021/08/22 01:08:20;;;;;;;;;;;17.10;99.90;;;;;;8460593;28;19914;-66
2021/08/22 01:12:24;;;;;;;;;;;17.10;99.90;;;;;;8443365;28;19923;-66
2021/08/22 01:16:26;;;;;;;;;;;17.10;99.90;;;;;;8461798;28;20355;-66
2021/08/22 01:20:34;;;;;;;;;;;17.00;99.90;;;;;;8460939;28;20006;-66
2021/08/22 01:24:37;;;;;;;;;;;17.40;99.90;;;;;;8461127;28;19908;-66
2021/08/22 01:28:38;;;;;;;;;;;17.10;99.90;;;;;;8460434;28;19953;-66
2021/08/22 01:32:38;;;;;;;;;;;17.20;99.90;;;;;;8460815;28;20014;-66
2021/08/22 01:36:39;;;;;;;;;;;17.10;99.90;;;;;;8441984;28;20313;-66
2021/08/22 01:40:42;;;;;;;;;;;17.20;99.90;;;;;;8459219;28;20367;-66
2021/08/22 01:44:43;;;;;;;;;;;17.20;99.90;;;;;;8459784;28;20114;-66
2021/08/22 01:48:43;;;;;;;;;;;17.20;99.90;;;;;;8460110;28;19908;-66
2021/08/22 01:52:44;;;;;;;;;;;17.20;99.90;;;;;;8459754;28;19918;-67
2021/08/22 01:56:44;;;;;;;;;;;17.20;99.90;;;;;;8459940;28;20522;-67
2021/08/22 02:00:45;;;;;;;;;;;17.40;99.90;;;;;;8459982;28;19976;-67
2021/08/22 02:04:47;;;;;;;;;;;17.30;99.90;;;;;;8441681;28;19908;-66
2021/08/22 02:08:50;;;;;;;;;;;17.10;99.90;;;;;;8459726;28;19908;-66
2021/08/22 02:12:52;;;;;;;;;;;17.30;99.90;;;;;;8458968;28;20009;-66
2021/08/22 02:16:54;;;;;;;;;;;17.70;99.90;;;;;;8459968;28;20389;-65
2021/08/22 02:20:54;;;;;;;;;;;18.10;99.90;;;;;;8458648;28;20380;-66
2021/08/22 02:24:57;;;;;;;;;;;18.20;99.90;;;;;;8459264;28;19914;-66
2021/08/22 02:28:58;;;;;;;;;;;18.10;99.90;;;;;;8459504;28;19915;-66
2021/08/22 02:32:59;;;;;;;;;;;18.10;99.90;;;;;;8459600;28;19946;-66
2021/08/22 02:37:00;;;;;;;;;;;18.00;99.90;;;;;;8459470;28;19967;-66
2021/08/22 02:41:00;;;;;;;;;;;17.80;99.90;;;;;;8459326;28;19915;-66
2021/08/22 02:45:00;;;;;;;;;;;17.80;99.90;;;;;;8458560;28;19946;-66
2021/08/22 02:49:01;;;;;;;;;;;17.70;99.90;;;;;;8459214;28;19915;-66
2021/08/22 02:53:02;;;;;;;;;;;17.70;99.90;;;;;;8460175;28;19916;-66
2021/08/22 02:57:02;;;;;;;;;;;17.50;99.90;;;;;;8465848;28;19908;-66
2021/08/22 03:01:03;;;;;;;;;;;17.50;99.90;;;;;;8465995;28;19912;-66
2021/08/22 03:05:03;;;;;;;;;;;17.60;99.90;;;;;;8465924;28;20356;-66
2021/08/22 03:09:04;;;;;;;;;;;17.50;99.90;;;;;;8465780;28;20405;-66
2021/08/22 03:13:04;;;;;;;;;;;17.40;99.90;;;;;;8465592;28;19975;-66
2021/08/22 03:17:05;;;;;;;;;;;17.40;99.90;;;;;;8464275;28;19912;-66
2021/08/22 03:21:05;;;;;;;;;;;17.80;99.90;;;;;;8465052;28;19958;-66
2021/08/22 03:25:06;;;;;;;;;;;17.80;99.90;;;;;;8464856;28;19908;-66
2021/08/22 03:29:07;;;;;;;;;;;17.80;99.90;;;;;;8464943;28;19908;-66
2021/08/22 03:33:07;;;;;;;;;;;17.70;99.90;;;;;;8464800;28;19916;-66
2021/08/22 03:37:08;;;;;;;;;;;17.70;99.90;;;;;;8464493;28;19915;-66
2021/08/22 03:41:08;;;;;;;;;;;17.70;99.90;;;;;;8464428;28;20285;-67
2021/08/22 03:45:09;;;;;;;;;;;17.70;99.90;;;;;;8464528;28;20362;-66
2021/08/22 03:49:09;;;;;;;;;;;17.80;99.90;;;;;;8444623;28;20370;-66
2021/08/22 03:53:10;;;;;;;;;;;17.60;99.90;;;;;;8463779;28;20006;-66
2021/08/22 03:57:10;;;;;;;;;;;17.60;99.90;;;;;;8445654;28;19915;-66
2021/08/22 04:01:11;;;;;;;;;;;17.70;99.90;;;;;;8463763;28;20018;-66
2021/08/22 04:05:12;;;;;;;;;;;17.40;99.90;;;;;;8462818;28;20319;-66
2021/08/22 04:09:13;;;;;;;;;;;17.30;99.90;;;;;;8445414;28;20000;-66
2021/08/22 04:13:14;;;;;;;;;;;17.30;99.90;;;;;;8463565;28;20369;-66
2021/08/22 04:17:14;;;;;;;;;;;17.20;99.90;;;;;;8463269;28;19935;-66
2021/08/22 04:21:15;;;;;;;;;;;17.30;99.90;;;;;;8462433;28;19981;-68
2021/08/22 04:25:15;;;;;;;;;;;17.20;99.90;;;;;;8444776;28;19908;-66
2021/08/22 04:29:16;;;;;;;;;;;17.20;99.90;;;;;;8444539;28;20259;-66
2021/08/22 04:33:16;;;;;;;;;;;17.10;99.90;;;;;;8462821;28;19912;-66
2021/08/22 04:37:18;;;;;;;;;;;16.90;99.90;;;;;;8467815;22;20191;-65
2021/08/22 04:41:19;;;;;;;;;;;16.90;99.90;;;;;;8427086;28;19915;-65
2021/08/22 04:45:20;;;;;;;;;;;16.80;99.90;;;;;;8428817;28;20443;-65
2021/08/22 04:49:20;;;;;;;;;;;16.90;99.90;;;;;;8440577;28;19951;-68
2021/08/22 04:53:21;;;;;;;;;;;17.10;99.90;;;;;;8460987;28;20289;-68
2021/08/22 04:57:21;;;;;;;;;;;17.10;99.90;;;;;;8461910;28;19908;-68
2021/08/22 05:01:21;;;;;;;;;;;17.10;99.90;;;;;;8443242;28;19912;-68
2021/08/22 05:05:22;;;;;;;;;;;17.20;99.90;;;;;;8446342;28;19912;-68
2021/08/22 05:09:23;;;;;;;;;;;17.40;99.90;;;;;;8450903;28;19996;-68
2021/08/22 05:13:23;;;;;;;;;;;17.40;99.90;;;;;;8460209;28;19941;-68
2021/08/22 05:17:24;;;;;;;;;;;17.40;99.90;;;;;;8460522;28;20317;-68
2021/08/22 05:21:26;;;;;;;;;;;17.50;99.90;;;;;;8447814;28;20481;-68
2021/08/22 05:25:26;;;;;;;;;;;17.60;99.90;;;;;;8441801;28;19907;-68
2021/08/22 05:29:27;;;;;;;;;;;17.70;99.90;;;;;;8438113;28;19918;-68
2021/08/22 05:33:28;;;;;;;;;;;17.90;99.90;;;;;;8453975;28;19915;-68
2021/08/22 05:37:30;;;;;;;;;;;18.00;99.90;;;;;;8457987;28;19915;-68
2021/08/22 05:41:30;;;;;;;;;;;18.10;99.90;;;;;;8459342;28;19911;-68
2021/08/22 05:45:31;;;;;;;;;;;18.10;99.90;;;;;;8440678;28;19973;-68
2021/08/22 05:49:31;;;;;;;;;;;18.30;99.90;;;;;;8457749;28;19908;-68
2021/08/22 05:53:32;;;;;;;;;;;18.30;99.90;;;;;;8451068;28;20007;-68
2021/08/22 05:57:32;;;;;;;;;;;18.30;99.90;;;;;;8441902;28;20609;-68
2021/08/22 06:01:33;;;;;;;;;;;18.30;99.90;;;;;;8439559;28;19908;-68
2021/08/22 06:05:33;;;;;;;;;;;18.20;99.90;;;;;;8423805;28;20467;-68
2021/08/22 06:09:34;;;;;;;;;;;18.40;99.90;;;;;;8441867;28;19912;-68
2021/08/22 06:13:35;;;;;;;;;;;18.40;99.90;;;;;;8436887;28;19920;-73
2021/08/22 06:17:35;;;;;;;;;;;18.40;99.90;;;;;;8456590;28;19919;-73
2021/08/22 06:21:36;;;;;;;;;;;18.60;99.90;;;;;;8431072;28;20297;-73
2021/08/22 06:25:37;;;;;;;;;;;18.70;99.90;;;;;;8441539;28;20369;-73
2021/08/22 06:29:37;;;;;;;;;;;18.80;99.90;;;;;;8434697;28;19919;-73
2021/08/22 06:33:38;;;;;;;;;;;19.00;99.90;;;;;;8441896;28;19912;-73
2021/08/22 06:37:40;;;;;;;;;;;19.10;99.90;;;;;;8441579;28;19923;-73
2021/08/22 06:41:41;;;;;;;;;;;19.30;99.90;;;;;;8439658;28;19908;-73
2021/08/22 06:45:41;;;;;;;;;;;19.40;99.90;;;;;;8441634;28;19920;-73
2021/08/22 06:49:41;;;;;;;;;;;19.60;99.90;;;;;;8438658;28;19915;-73
2021/08/22 06:53:42;;;;;;;;;;;19.90;99.90;;;;;;8452612;28;19923;-73
2021/08/22 06:57:42;;;;;;;;;;;19.90;99.90;;;;;;8441129;28;19923;-72
2021/08/22 07:01:43;;;;;;;;;;;19.90;99.90;;;;;;8431545;28;19912;-74
2021/08/22 07:05:43;;;;;;;;;;;20.00;99.90;;;;;;8421805;28;19912;-73
2021/08/22 07:09:44;;;;;;;;;;;20.30;99.90;;;;;;8434434;28;19964;-73
2021/08/22 07:13:44;;;;;;;;;;;20.70;99.90;;;;;;8458165;28;19974;-73
2021/08/22 07:17:45;;;;;;;;;;;21.00;99.90;;;;;;8439638;28;19912;-73
2021/08/22 07:21:45;;;;;;;;;;;21.20;99.90;;;;;;8457060;28;19915;-73
2021/08/22 07:25:46;;;;;;;;;;;21.20;99.90;;;;;;8438706;28;20610;-73
2021/08/22 07:29:46;;;;;;;;;;;21.30;99.90;;;;;;8437876;28;20019;-74
2021/08/22 07:33:47;;;;;;;;;;;21.40;99.90;;;;;;8454138;28;20016;-73
2021/08/22 07:37:48;;;;;;;;;;;21.40;99.90;;;;;;8442296;28;19916;-72
2021/08/22 07:41:48;;;;;;;;;;;21.40;99.90;;;;;;8455002;28;19912;-73
2021/08/22 07:45:49;;;;;;;;;;;21.40;99.90;;;;;;8461591;28;19918;-73
2021/08/22 07:49:49;;;;;;;;;;;21.40;99.90;;;;;;8458311;28;19912;-73
2021/08/22 07:53:50;;;;;;;;;;;21.50;99.90;;;;;;8430573;28;19923;-73
2021/08/22 07:57:51;;;;;;;;;;;21.60;99.90;;;;;;8442480;28;19995;-74
2021/08/22 08:01:52;;;;;;;;;;;21.80;99.90;;;;;;8457248;28;19912;-75
2021/08/22 08:05:54;;;;;;;;;;;22.40;99.90;;;;;;8462160;28;20014;-74
2021/08/22 08:09:55;;;;;;;;;;;22.70;99.90;;;;;;8461040;28;19912;-73
2021/08/22 08:13:56;;;;;;;;;;;22.50;99.90;;;;;;8462511;28;19927;-74
2021/08/22 08:17:56;;;;;;;;;;;22.50;99.90;;;;;;8428000;28;19912;-73
2021/08/22 08:21:56;;;;;;;;;;;22.50;99.90;;;;;;8448912;28;19907;-73
2021/08/22 08:25:57;;;;;;;;;;;22.10;99.90;;;;;;8434451;28;19934;-73
2021/08/22 08:29:58;;;;;;;;;;;22.00;99.90;;;;;;8462258;28;19988;-73
2021/08/22 08:33:58;;;;;;;;;;;21.90;99.90;;;;;;8443983;28;19927;-73
2021/08/22 08:37:59;;;;;;;;;;;22.10;99.90;;;;;;8457144;28;20613;-73
2021/08/22 08:42:17;;;;;;;;;;;21.90;99.90;;;;;;8448150;28;19915;-73
2021/08/22 08:46:41;;;;;;;;;;;22.40;99.90;;;;;;8430743;28;19915;-73
2021/08/22 08:50:50;;;;;;;;;;;23.00;99.90;;;;;;8416303;28;19908;-73
2021/08/22 08:55:09;;;;;;;;;;;23.00;99.90;;;;;;8442964;28;20014;-73
2021/08/22 08:59:10;;;;;;;;;;;22.80;99.90;;;;;;8457552;28;19935;-74
2021/08/22 09:03:17;;;;;;;;;;;23.00;99.90;;;;;;8443182;28;19918;-74
2021/08/22 09:07:33;;;;;;;;;;;23.40;99.90;;;;;;8461735;28;19911;-73
2021/08/22 09:11:52;;;;;;;;;;;23.40;99.90;;;;;;8459271;28;19981;-73
2021/08/22 09:16:01;;;;;;;;;;;23.30;99.90;;;;;;8458493;28;20285;-73
2021/08/22 09:20:20;;;;;;;;;;;23.30;99.90;;;;;;8455643;28;20389;-73
2021/08/22 09:24:30;;;;;;;;;;;23.20;99.90;;;;;;8445650;28;20285;-73
2021/08/22 09:28:30;;;;;;;;;;;22.60;99.90;;;;;;8442098;28;20266;-73
2021/08/22 09:32:49;;;;;;;;;;;22.20;99.90;;;;;;8437983;28;19961;-73
2021/08/22 09:36:53;;;;;;;;;;;22.30;99.90;;;;;;8419586;28;19973;-74
2021/08/22 09:40:59;;;;;;;;;;;22.50;99.90;;;;;;8437720;28;19969;-73
2021/08/22 09:45:29;;;;;;;;;;;22.70;99.90;;;;;;8415485;28;19912;-70
2021/08/22 09:49:49;;;;;;;;;;;22.60;99.90;;;;;;8448867;28;19954;-71
2021/08/22 09:54:08;;;;;;;;;;;22.70;99.90;;;;;;8451716;28;19915;-71
2021/08/22 09:58:24;;;;;;;;;;;23.00;99.90;;;;;;8438178;28;20378;-70
2021/08/22 10:02:44;;;;;;;;;;;23.20;99.90;;;;;;8429700;28;19920;-70
2021/08/22 10:06:50;;;;;;;;;;;23.10;99.90;;;;;;8455027;28;20281;-70
2021/08/22 10:10:52;;;;;;;;;;;23.00;99.90;;;;;;8429746;28;20350;-70
2021/08/22 10:14:53;;;;;;;;;;;22.90;99.90;;;;;;8415365;28;19935;-70
2021/08/22 10:19:02;;;;;;;;;;;22.70;99.90;;;;;;8456694;28;19919;-71
2021/08/22 10:23:02;;;;;;;;;;;22.50;99.90;;;;;;8444482;28;19915;-70
2021/08/22 10:27:03;;;;;;;;;;;22.20;99.90;;;;;;8439229;28;19930;-70
2021/08/22 10:31:04;;;;;;;;;;;22.30;99.90;;;;;;8438427;28;19908;-71
2021/08/22 10:35:07;;;;;;;;;;;22.20;99.90;;;;;;8447032;28;19920;-71
2021/08/22 10:39:19;;;;;;;;;;;22.20;99.90;;;;;;8455386;28;19962;-70
2021/08/22 10:43:23;;;;;;;;;;;22.30;99.90;;;;;;8421063;28;19918;-70
2021/08/22 10:47:40;;;;;;;;;;;21.90;99.90;;;;;;8427005;28;19998;-70
2021/08/22 10:51:40;;;;;;;;;;;21.70;99.90;;;;;;8455929;28;19916;-71
2021/08/22 10:55:41;;;;;;;;;;;21.70;99.90;;;;;;8438556;28;19915;-69
2021/08/22 11:00:01;;;;;;;;;;;21.40;99.90;;;;;;8454310;28;19951;-68
2021/08/22 11:04:18;;;;;;;;;;;21.00;99.90;;;;;;8440971;28;19959;-68
2021/08/22 11:08:24;;;;;;;;;;;20.50;99.90;;;;;;8457577;28;20003;-68
2021/08/22 11:12:26;;;;;;;;;;;20.30;99.90;;;;;;8454999;28;19919;-69
2021/08/22 11:16:58;;;;;;;;;;;20.10;99.90;;;;;;8463272;28;19922;-70
2021/08/22 11:20:59;;;;;;;;;;;20.40;99.90;;;;;;8409989;28;19933;-70
2021/08/22 11:24:59;;;;;;;;;;;21.40;99.90;;;;;;8444967;28;20003;-69
2021/08/22 11:29:00;;;;;;;;;;;22.20;99.90;;;;;;8462574;28;19919;-69
2021/08/22 11:33:01;;;;;;;;;;;22.70;99.90;;;;;;8463295;28;19919;-69
2021/08/22 11:37:16;;;;;;;;;;;22.90;99.90;;;;;;8462533;28;21361;-72
2021/08/22 11:41:16;;;;;;;;;;;23.50;99.90;;;;;;8463039;28;20276;-70
2021/08/22 11:45:18;;;;;;;;;;;23.90;99.90;;;;;;8456050;28;20373;-70
2021/08/22 11:49:19;;;;;;;;;;;23.60;99.90;;;;;;8451518;28;19916;-69
2021/08/22 11:53:27;;;;;;;;;;;23.20;99.90;;;;;;8455036;28;19919;-70
2021/08/22 11:57:29;;;;;;;;;;;23.00;99.90;;;;;;8457152;28;19919;-70
2021/08/22 12:01:29;;;;;;;;;;;22.70;99.90;;;;;;8460964;28;19911;-68
2021/08/22 12:05:30;;;;;;;;;;;22.20;99.90;;;;;;8460477;28;19919;-68
2021/08/22 12:09:31;;;;;;;;;;;21.70;99.90;;;;;;8461207;28;19919;-68
2021/08/22 12:13:32;;;;;;;;;;;20.70;99.90;;;;;;8447329;28;20395;-70
2021/08/22 12:17:32;;;;;;;;;;;20.10;99.90;;;;;;8461742;28;19912;-69
2021/08/22 12:21:33;;;;;;;;;;;20.20;99.90;;;;;;8434181;28;19959;-71
2021/08/22 12:25:37;;;;;;;;;;;20.50;99.90;;;;;;8455931;28;19908;-70
2021/08/22 12:29:39;;;;;;;;;;;20.70;99.90;;;;;;8451822;28;19965;-69
2021/08/22 12:33:41;;;;;;;;;;;21.00;99.90;;;;;;8453938;28;20077;-69
2021/08/22 12:37:41;;;;;;;;;;;21.10;99.90;;;;;;8456958;28;19919;-70
2021/08/22 12:41:47;;;;;;;;;;;21.20;99.90;;;;;;8450413;28;19923;-69
2021/08/22 12:45:48;;;;;;;;;;;21.50;99.90;;;;;;8452072;28;19912;-69
2021/08/22 12:49:48;;;;;;;;;;;21.70;99.90;;;;;;8439331;28;19912;-69
2021/08/22 12:53:49;;;;;;;;;;;21.80;99.90;;;;;;8437324;28;19920;-69
2021/08/22 12:57:50;;;;;;;;;;;21.90;99.90;;;;;;8439333;28;19912;-69
2021/08/22 13:01:51;;;;;;;;;;;21.90;99.90;;;;;;8438979;28;19915;-70
2021/08/22 13:05:51;;;;;;;;;;;22.10;99.90;;;;;;8457894;28;20282;-69
2021/08/22 13:09:52;;;;;;;;;;;22.20;99.90;;;;;;8455666;28;19912;-70
2021/08/22 13:13:55;;;;;;;;;;;21.90;99.90;;;;;;8455504;28;19920;-70
2021/08/22 13:17:55;;;;;;;;;;;21.80;99.90;;;;;;8449724;28;20331;-70
2021/08/22 13:21:56;;;;;;;;;;;21.50;99.90;;;;;;8439071;28;19981;-69
2021/08/22 13:25:56;;;;;;;;;;;21.30;99.90;;;;;;8452895;28;20019;-69
2021/08/22 13:29:57;;;;;;;;;;;21.40;99.90;;;;;;8454410;28;19970;-69
2021/08/22 13:33:59;;;;;;;;;;;21.60;99.90;;;;;;8445255;28;19927;-69
2021/08/22 13:37:59;;;;;;;;;;;21.90;99.90;;;;;;8449890;28;20442;-69
2021/08/22 13:42:00;;;;;;;;;;;22.00;99.90;;;;;;8430625;28;19920;-69
2021/08/22 13:46:00;;;;;;;;;;;21.90;99.90;;;;;;8457717;28;19912;-71
2021/08/22 13:50:01;;;;;;;;;;;21.60;99.90;;;;;;8457214;28;19908;-69
2021/08/22 13:54:02;;;;;;;;;;;21.50;99.90;;;;;;8451353;28;19965;-70
2021/08/22 13:58:03;;;;;;;;;;;21.60;99.90;;;;;;8423210;28;19922;-69
2021/08/22 14:02:04;;;;;;;;;;;21.70;99.90;;;;;;8450844;28;19926;-71
2021/08/22 14:06:04;;;;;;;;;;;21.60;99.90;;;;;;8456018;28;20438;-69
2021/08/22 14:10:05;;;;;;;;;;;21.60;99.90;;;;;;8456272;28;19914;-68
2021/08/22 14:14:05;;;;;;;;;;;21.50;99.90;;;;;;8456731;28;19915;-69
2021/08/22 14:18:06;;;;;;;;;;;21.10;99.90;;;;;;8455842;28;20313;-70
2021/08/22 14:22:06;;;;;;;;;;;20.70;99.90;;;;;;8456387;28;19912;-71
2021/08/22 14:26:06;;;;;;;;;;;20.40;99.90;;;;;;8453935;28;19936;-69
2021/08/22 14:30:07;;;;;;;;;;;20.10;99.90;;;;;;8452408;28;19918;-69
2021/08/22 14:34:08;;;;;;;;;;;20.10;99.90;;;;;;8454755;28;19918;-70
2021/08/22 14:38:08;;;;;;;;;;;20.00;99.90;;;;;;8437522;28;19920;-70
2021/08/22 14:42:09;;;;;;;;;;;20.00;99.90;;;;;;8454229;28;19967;-69
2021/08/22 14:46:09;;;;;;;;;;;19.70;99.90;;;;;;8445729;28;19922;-68
2021/08/22 14:50:10;;;;;;;;;;;19.60;99.90;;;;;;8457632;28;19927;-68
2021/08/22 14:54:10;;;;;;;;;;;19.30;99.90;;;;;;8462460;28;19979;-71
2021/08/22 14:58:12;;;;;;;;;;;19.50;99.90;;;;;;8461733;28;19908;-69
2021/08/22 15:02:13;;;;;;;;;;;19.80;99.90;;;;;;8460882;28;19919;-69
2021/08/22 15:06:13;;;;;;;;;;;20.00;99.90;;;;;;8462083;28;19961;-70
2021/08/22 15:10:14;;;;;;;;;;;20.40;99.90;;;;;;8461352;28;20547;-69
2021/08/22 15:14:15;;;;;;;;;;;20.40;99.90;;;;;;8461795;28;20438;-68
2021/08/22 15:18:15;;;;;;;;;;;20.60;99.90;;;;;;8458486;28;20621;-70
2021/08/22 15:22:16;;;;;;;;;;;20.60;99.90;;;;;;8460754;28;19923;-69
2021/08/22 15:26:16;;;;;;;;;;;20.40;99.90;;;;;;8442799;28;19910;-68
2021/08/22 15:30:16;;;;;;;;;;;20.40;99.90;;;;;;8460788;28;19979;-67
2021/08/22 15:34:17;;;;;;;;;;;20.30;99.90;;;;;;8460137;28;19919;-68
2021/08/22 15:38:17;;;;;;;;;;;20.40;99.90;;;;;;8442086;28;19920;-68
2021/08/22 15:42:19;;;;;;;;;;;20.30;99.90;;;;;;8454216;28;19922;-69
2021/08/22 15:46:19;;;;;;;;;;;20.10;99.90;;;;;;8436615;28;19912;-69
2021/08/22 15:50:20;;;;;;;;;;;20.20;99.90;;;;;;8452619;28;19946;-69
2021/08/22 15:54:21;;;;;;;;;;;20.20;99.90;;;;;;8429767;28;20339;-69
2021/08/22 15:58:21;;;;;;;;;;;20.20;99.90;;;;;;8457214;28;19926;-68
2021/08/22 16:02:22;;;;;;;;;;;20.10;99.90;;;;;;8435790;28;20627;-68
2021/08/22 16:06:22;;;;;;;;;;;20.00;99.90;;;;;;8438543;28;20048;-70
2021/08/22 16:10:23;;;;;;;;;;;19.90;99.90;;;;;;8451707;28;19920;-69
2021/08/22 16:14:23;;;;;;;;;;;19.70;99.90;;;;;;8441481;28;19919;-69
2021/08/22 16:18:30;;;;;;;;;;;19.60;99.90;;;;;;8455087;28;19920;-68
2021/08/22 16:22:31;;;;;;;;;;;19.50;99.90;;;;;;8455867;28;19922;-70
2021/08/22 16:26:32;;;;;;;;;;;19.50;99.90;;;;;;8441078;28;19946;-73
2021/08/22 16:30:34;;;;;;;;;;;19.60;99.90;;;;;;8438768;28;19916;-74
2021/08/22 16:34:35;;;;;;;;;;;19.60;99.90;;;;;;8442706;28;19926;-73
2021/08/22 16:38:35;;;;;;;;;;;19.40;99.90;;;;;;8443659;28;19924;-75
2021/08/22 16:42:38;;;;;;;;;;;19.50;99.90;;;;;;8441943;28;19916;-73
2021/08/22 16:46:38;;;;;;;;;;;19.50;99.90;;;;;;8460296;28;19916;-74
2021/08/22 16:50:39;;;;;;;;;;;19.50;99.90;;;;;;8472155;22;19932;-65
2021/08/22 16:54:39;;;;;;;;;;;19.30;99.90;;;;;;8439926;28;19928;-66
2021/08/22 16:58:40;;;;;;;;;;;19.10;99.90;;;;;;8461133;28;19916;-66
2021/08/22 17:02:40;;;;;;;;;;;18.90;99.90;;;;;;8446332;28;19913;-65
2021/08/22 17:06:41;;;;;;;;;;;18.90;99.90;;;;;;8381633;28;19982;-67
2021/08/22 17:10:43;;;;;;;;;;;18.60;99.90;;;;;;8389352;28;19952;-68
2021/08/22 17:14:44;;;;;;;;;;;18.60;99.90;;;;;;8395912;28;19924;-66
2021/08/22 17:18:44;;;;;;;;;;;18.30;99.90;;;;;;8399351;28;20034;-66
2021/08/22 17:22:45;;;;;;;;;;;18.10;99.90;;;;;;8393027;28;19970;-66
2021/08/22 17:26:45;;;;;;;;;;;18.10;99.90;;;;;;8386014;28;19916;-66
2021/08/22 17:30:46;;;;;;;;;;;17.40;99.90;;;;;;8399853;28;19912;-68
2021/08/22 17:34:47;;;;;;;;;;;16.90;99.90;;;;;;8418312;28;19970;-68
2021/08/22 17:38:47;;;;;;;;;;;16.70;99.90;;;;;;8410298;28;19931;-68
2021/08/22 17:42:48;;;;;;;;;;;16.50;99.90;;;;;;8387566;28;19956;-67
2021/08/22 17:46:48;;;;;;;;;;;16.50;99.90;;;;;;8418507;28;19944;-68
2021/08/22 17:50:49;;;;;;;;;;;16.50;99.90;;;;;;8393970;28;19916;-69
2021/08/22 17:54:52;;;;;;;;;;;16.40;99.90;;;;;;8412702;28;19927;-68
2021/08/22 17:58:52;;;;;;;;;;;16.40;99.90;;;;;;8393557;28;19916;-68
2021/08/22 18:02:53;;;;;;;;;;;16.30;99.90;;;;;;8390624;28;19927;-71
2021/08/22 18:06:54;;;;;;;;;;;16.30;99.90;;;;;;8378295;28;19966;-71
2021/08/22 18:10:54;;;;;;;;;;;16.30;99.90;;;;;;8401888;28;19913;-69
2021/08/22 18:14:55;;;;;;;;;;;16.40;99.90;;;;;;8371887;28;19924;-69
2021/08/22 18:18:55;;;;;;;;;;;16.40;99.90;;;;;;8403319;28;19925;-69
2021/08/22 18:22:56;;;;;;;;;;;16.50;99.90;;;;;;8402753;28;19935;-70
2021/08/22 18:26:56;;;;;;;;;;;16.30;99.90;;;;;;8376783;28;20007;-69
2021/08/22 18:31:00;;;;;;;;;;;16.30;99.90;;;;;;8381170;28;19913;-67
2021/08/22 18:35:01;;;;;;;;;;;16.30;99.90;;;;;;8380222;28;19917;-69
2021/08/22 18:39:04;;;;;;;;;;;16.20;99.90;;;;;;8379906;28;19913;-69
2021/08/22 18:43:05;;;;;;;;;;;16.50;99.90;;;;;;8388568;28;19975;-69
2021/08/22 18:47:06;;;;;;;;;;;16.30;99.90;;;;;;8380459;28;19920;-69
2021/08/22 18:51:06;;;;;;;;;;;16.20;99.90;;;;;;8374161;28;20015;-69
2021/08/22 18:55:07;;;;;;;;;;;16.20;99.90;;;;;;8393219;28;20054;-68
2021/08/22 18:59:08;;;;;;;;;;;15.80;99.90;;;;;;8394417;28;20310;-67
2021/08/22 19:03:09;;;;;;;;;;;15.80;99.90;;;;;;8376884;28;20003;-69
2021/08/22 19:07:09;;;;;;;;;;;15.70;99.90;;;;;;8375903;28;20094;-68
2021/08/22 19:11:10;;;;;;;;;;;15.70;99.90;;;;;;8387093;28;19923;-69
2021/08/22 19:15:11;;;;;;;;;;;15.60;99.90;;;;;;8396998;28;19928;-68
2021/08/22 19:19:12;;;;;;;;;;;15.50;99.90;;;;;;8386920;28;19916;-67
2021/08/22 19:23:12;;;;;;;;;;;15.50;99.90;;;;;;8380593;28;19920;-68
2021/08/22 19:27:13;;;;;;;;;;;15.40;99.90;;;;;;8373933;28;19923;-67
2021/08/22 19:31:13;;;;;;;;;;;15.30;99.90;;;;;;8381084;28;19967;-68
2021/08/22 19:35:14;;;;;;;;;;;15.20;99.90;;;;;;8395351;28;19962;-68
2021/08/22 19:39:15;;;;;;;;;;;15.30;99.90;;;;;;8401841;28;19958;-67
2021/08/22 19:43:15;;;;;;;;;;;15.30;99.90;;;;;;8400321;28;19915;-69
2021/08/22 19:47:16;;;;;;;;;;;15.30;99.90;;;;;;8408352;28;20038;-68
2021/08/22 19:51:16;;;;;;;;;;;15.30;99.90;;;;;;8395321;28;19920;-67
2021/08/22 19:55:17;;;;;;;;;;;15.30;99.90;;;;;;8424799;28;19916;-68
2021/08/22 19:59:17;;;;;;;;;;;15.30;99.90;;;;;;8422283;28;19908;-68
2021/08/22 20:03:18;;;;;;;;;;;15.30;99.90;;;;;;8421828;28;19919;-68
2021/08/22 20:07:18;;;;;;;;;;;15.30;99.90;;;;;;8420841;28;19919;-69
2021/08/22 20:11:19;;;;;;;;;;;15.30;99.90;;;;;;8429083;28;19917;-68
2021/08/22 20:15:20;;;;;;;;;;;15.20;99.90;;;;;;8391984;28;19975;-69
2021/08/22 20:19:20;;;;;;;;;;;15.30;99.90;;;;;;8393017;28;19920;-68
2021/08/22 20:23:21;;;;;;;;;;;15.20;99.90;;;;;;8406745;28;20049;-68
2021/08/22 20:27:21;;;;;;;;;;;15.40;99.90;;;;;;8414493;28;20045;-69
2021/08/22 20:31:22;;;;;;;;;;;15.20;99.90;;;;;;8414578;28;19948;-69
2021/08/22 20:35:23;;;;;;;;;;;15.20;99.90;;;;;;8401955;28;19920;-68
2021/08/22 20:39:25;;;;;;;;;;;15.20;99.90;;;;;;8403905;28;19913;-69
2021/08/22 20:43:25;;;;;;;;;;;15.10;99.90;;;;;;8406786;28;19912;-68
2021/08/22 20:47:26;;;;;;;;;;;15.00;99.90;;;;;;8387247;28;20041;-68
2021/08/22 20:51:28;;;;;;;;;;;15.20;99.90;;;;;;8404969;28;19916;-67
2021/08/22 20:55:28;;;;;;;;;;;15.10;99.90;;;;;;8405124;28;19962;-69
2021/08/22 20:59:29;;;;;;;;;;;14.90;99.90;;;;;;8404353;28;19916;-69
2021/08/22 21:03:29;;;;;;;;;;;14.80;99.90;;;;;;8404864;28;20004;-66
2021/08/22 21:07:30;;;;;;;;;;;14.80;99.90;;;;;;8406901;28;19922;-68
2021/08/22 21:11:30;;;;;;;;;;;14.80;99.90;;;;;;8406534;28;19912;-68
2021/08/22 21:15:31;;;;;;;;;;;14.80;99.90;;;;;;8388692;28;19919;-68
2021/08/22 21:19:32;;;;;;;;;;;14.80;99.90;;;;;;8387095;28;19919;-68
2021/08/22 21:23:32;;;;;;;;;;;14.90;99.90;;;;;;8401365;28;19912;-68
2021/08/22 21:27:33;;;;;;;;;;;14.80;99.90;;;;;;8403179;28;19916;-68
2021/08/22 21:31:33;;;;;;;;;;;14.60;99.90;;;;;;8369600;28;19916;-69
2021/08/22 21:35:34;;;;;;;;;;;14.30;99.90;;;;;;8389578;28;19916;-69
2021/08/22 21:39:35;;;;;;;;;;;14.30;99.90;;;;;;8389392;28;19997;-68
2021/08/22 21:43:35;;;;;;;;;;;14.40;99.90;;;;;;8389393;28;19975;-68
2021/08/22 21:47:37;;;;;;;;;;;14.20;99.90;;;;;;8388427;28;19917;-68
2021/08/22 21:51:37;;;;;;;;;;;14.10;99.90;;;;;;8389760;28;19916;-68
2021/08/22 21:55:38;;;;;;;;;;;13.90;99.90;;;;;;8389295;28;19955;-68
2021/08/22 21:59:38;;;;;;;;;;;13.80;99.90;;;;;;8370053;28;20401;-68
2021/08/22 22:03:39;;;;;;;;;;;13.80;99.90;;;;;;8370993;28;20334;-67
2021/08/22 22:07:39;;;;;;;;;;;13.90;99.90;;;;;;8388965;28;19917;-67
2021/08/22 22:11:40;;;;;;;;;;;14.20;99.90;;;;;;8388936;28;19913;-68
2021/08/22 22:15:40;;;;;;;;;;;14.20;99.90;;;;;;8371222;28;19956;-69
2021/08/22 22:19:41;;;;;;;;;;;14.10;99.90;;;;;;8390925;28;20417;-69
2021/08/22 22:23:41;;;;;;;;;;;14.00;99.90;;;;;;8392491;28;19951;-68
2021/08/22 22:27:42;;;;;;;;;;;14.10;99.90;;;;;;8392321;28;19908;-68
2021/08/22 22:31:42;;;;;;;;;;;13.80;99.90;;;;;;8392878;28;19966;-68
2021/08/22 22:35:42;;;;;;;;;;;13.60;99.90;;;;;;8392183;28;19947;-68
2021/08/22 22:39:43;;;;;;;;;;;13.50;99.90;;;;;;8392025;28;19956;-69
2021/08/22 22:43:43;;;;;;;;;;;13.50;99.90;;;;;;8392332;28;19916;-68
2021/08/22 22:47:44;;;;;;;;;;;13.50;99.90;;;;;;8391972;28;19919;-69
2021/08/22 22:51:44;;;;;;;;;;;13.50;99.90;;;;;;8426309;22;19980;-68
2021/08/22 22:55:46;;;;;;;;;;;13.60;99.90;;;;;;8458535;28;19919;-68
2021/08/22 22:59:46;;;;;;;;;;;13.80;99.90;;;;;;8458669;28;19912;-68
2021/08/22 23:03:46;;;;;;;;;;;14.00;99.90;;;;;;8459433;28;20396;-68
2021/08/22 23:07:47;;;;;;;;;;;14.00;99.90;;;;;;8458582;28;20401;-68
2021/08/22 23:11:47;;;;;;;;;;;13.90;99.90;;;;;;8462502;28;20293;-68
2021/08/22 23:15:48;;;;;;;;;;;13.90;99.90;;;;;;8465064;28;19966;-68
2021/08/22 23:19:48;;;;;;;;;;;13.90;99.90;;;;;;8465367;28;19961;-67
2021/08/22 23:23:49;;;;;;;;;;;14.00;99.90;;;;;;8446572;28;19915;-68
2021/08/22 23:27:49;;;;;;;;;;;13.80;99.90;;;;;;8445989;28;19965;-67